Date,TemperatureHighF,TemperatureAvgF,TemperatureLowF,DewpointHighF,DewpointAvgF,DewpointLowF,HumidityHigh,HumidityAvg,HumidityLow,PressureMaxIn,PressureMinIn,WindSpeedMaxMPH,WindSpeedAvgMPH,GustSpeedMaxMPH,PrecipitationSumIn
2013-1-1,83,74,67,69,67,64,94,79,61,29.88,29.73,15,4,15,0.00
2013-1-2,74,68,64,66,62,57,92,80,63,30.09,29.76,23,5,23,0.00
2013-1-3,80,71,63,64,60,57,82,70,51,30.09,29.98,14,3,14,0.00
2013-1-4,86,74,62,67,63,60,94,71,42,30.02,29.90,16,4,16,0.00
2013-1-5,88,77,66,69,66,63,93,72,51,30.03,29.91,17,4,17,0.00
2013-1-6,87,76,66,70,67,64,95,75,52,30.19,30.03,14,3,14,0.00
2013-1-7,84,75,69,69,67,65,92,76,58,30.19,29.91,15,5,15,0.00
2013-1-8,110,89,68,67,59,48,86,47,16,29.89,29.31,20,5,20,0.00
2013-1-9,91,72,67,63,57,51,80,62,26,29.74,29.29,25,6,25,0.00
2013-1-10,75,70,67,63,60,55,77,70,62,29.86,29.73,15,3,15,0.00
2013-1-11,89,77,63,70,66,60,92,70,51,29.86,29.62,14,3,14,0.00
2013-1-12,84,75,69,70,66,64,90,75,53,29.90,29.62,21,4,21,0.00
2013-1-13,75,68,62,68,65,60,97,89,74,29.92,29.75,23,3,23,0.38
2013-1-14,72,66,60,60,57,51,96,75,53,30.15,29.84,29,7,29,0.02
2013-1-15,79,69,57,63,58,53,85,68,49,30.14,29.97,14,4,14,0.00
2013-1-16,86,73,60,69,64,58,95,75,45,29.98,29.85,15,3,15,0.00
2013-1-17,86,76,68,72,69,66,95,78,56,29.94,29.70,17,4,17,0.00
2013-1-18,115,86,69,72,67,58,95,62,17,29.74,29.43,50,5,50,0.00
2013-1-19,71,70,69,65,64,62,83,81,73,29.91,29.77,17,6,17,0.00
2013-1-20,78,70,66,66,62,60,96,77,57,30.04,29.94,12,3,12,0.02
2013-1-21,82,74,67,69,67,64,97,81,58,29.99,29.85,16,3,16,0.00
2013-1-22,91,76,67,72,68,64,95,78,53,29.88,29.70,24,3,24,0.13
2013-1-23,76,70,68,67,65,63,92,84,72,30.04,29.86,26,11,26,0.00
2013-1-24,85,75,67,71,67,63,92,77,58,30.04,29.92,15,4,15,0.00
2013-1-25,88,78,67,73,70,66,97,78,54,29.95,29.79,20,4,20,0.00
2013-1-26,86,79,74,74,72,70,94,80,64,29.90,29.78,24,6,24,0.00
2013-1-27,77,71,68,73,70,67,98,95,83,29.83,29.75,15,3,15,1.23
2013-1-28,72,70,67,71,70,66,99,97,96,29.82,29.72,29,3,29,2.13
2013-1-29,78,72,68,73,68,64,99,90,70,29.83,29.51,23,4,23,1.12
2013-1-30,81,73,67,68,66,63,90,79,59,29.98,29.83,13,3,13,0.00
2013-1-31,86,77,69,72,70,67,95,79,57,29.96,29.68,20,3,20,0.00
2013-2-1,73,68,62,71,65,59,98,91,75,29.78,29.62,39,9,39,0.72
2013-2-2,68,61,57,60,56,52,96,86,62,29.94,29.73,33,12,33,0.50
2013-2-3,73,64,58,64,58,51,91,81,71,30.07,29.88,24,6,24,0.02
2013-2-4,78,68,61,64,61,56,95,78,52,30.24,30.05,18,5,18,0.00
2013-2-5,81,70,63,66,62,60,92,76,57,30.25,30.15,13,4,13,0.00
2013-2-6,83,72,64,65,62,58,95,73,47,30.18,30.02,17,3,17,0.00
2013-2-7,86,74,63,64,61,57,90,67,38,30.07,29.94,20,4,20,0.00
2013-2-8,88,77,65,67,64,61,87,67,42,30.04,29.94,16,3,16,0.00
2013-2-9,87,76,67,70,67,64,93,76,52,30.01,29.85,15,3,15,0.00
2013-2-10,87,73,67,72,68,65,97,86,54,30.11,29.86,30,5,30,0.39
2013-2-11,73,68,64,66,64,62,97,88,76,30.12,29.99,21,8,21,0.05
2013-2-12,75,68,64,66,64,61,97,85,64,30.18,30.07,15,5,15,0.01
2013-2-13,77,69,64,65,62,59,93,79,60,30.24,30.15,18,4,18,0.02
2013-2-14,80,70,59,65,62,58,96,78,55,30.19,30.09,13,2,13,0.01
2013-2-15,80,71,65,69,64,61,98,82,54,30.18,30.10,13,2,13,0.09
2013-2-16,79,69,62,68,64,60,95,86,63,30.18,30.11,16,3,16,0.05
2013-2-17,80,71,63,67,63,59,98,79,51,30.18,30.10,12,2,12,0.09
2013-2-18,82,71,61,67,63,58,94,78,52,30.12,30.01,14,2,14,0.00
2013-2-19,84,73,63,70,66,62,97,80,57,30.01,29.89,14,3,14,0.01
2013-2-20,83,73,66,71,68,65,97,83,59,30.06,29.94,14,2,14,0.01
2013-2-21,82,74,67,70,68,65,98,82,61,30.09,30.01,16,2,16,0.17
2013-2-22,80,75,70,69,66,62,88,74,61,30.10,30.02,20,4,23,0.02
2013-2-23,75,72,67,72,69,64,97,91,74,30.04,29.83,28,7,28,1.51
2013-2-24,83,76,72,76,73,70,98,90,78,29.96,29.74,27,5,28,0.88
2013-2-25,86,77,72,75,72,70,96,85,69,30.05,29.92,16,3,16,0.00
2013-2-26,82,76,70,72,70,67,95,82,66,30.07,29.98,17,5,17,0.00
2013-2-27,84,76,69,71,68,66,90,77,60,30.01,29.82,20,4,20,0.00
2013-2-28,84,68,59,71,65,58,96,89,61,29.89,29.73,36,6,36,0.46
2013-3-1,67,64,61,65,61,55,98,90,64,30.08,29.85,26,9,27,0.83
2013-3-2,68,66,62,63,60,53,93,81,64,30.18,30.07,23,8,23,0.14
2013-3-3,79,72,65,65,63,61,90,74,59,30.18,30.12,20,5,20,0.02
2013-3-4,80,72,66,67,63,59,96,73,55,30.19,30.11,14,4,14,0.05
2013-3-5,81,72,64,66,62,58,88,72,50,30.17,30.09,16,3,16,0.00
2013-3-6,82,73,64,67,65,62,93,77,55,30.14,30.03,14,3,14,0.00
2013-3-7,83,74,64,66,64,61,94,74,49,30.12,30.01,15,4,15,0.00
2013-3-8,81,73,65,66,64,62,93,75,54,30.19,30.10,16,3,16,0.00
2013-3-9,84,75,68,68,66,61,92,75,49,30.16,30.04,14,3,14,0.00
2013-3-10,83,73,63,67,64,61,95,76,49,30.11,30.01,16,3,16,0.00
2013-3-11,83,74,64,68,66,62,96,77,55,30.15,30.06,14,2,14,0.00
2013-3-12,82,73,67,68,66,62,96,79,56,30.14,30.01,14,2,14,0.01
2013-3-13,86,73,64,68,64,56,94,75,37,30.02,29.78,16,4,16,0.00
2013-3-14,76,71,65,68,66,63,93,85,76,29.95,29.79,22,4,22,0.00
2013-3-15,75,70,66,66,65,64,96,83,72,30.03,29.94,24,6,24,0.23
2013-3-16,86,76,68,71,68,65,92,77,53,30.02,29.74,13,3,13,0.00
2013-3-17,73,68,64,69,55,48,95,63,48,30.08,29.77,34,13,35,0.02
2013-3-18,73,65,58,56,52,48,77,65,51,30.20,30.07,22,4,22,0.00
2013-3-19,76,64,58,59,54,50,84,71,48,30.28,30.17,10,2,10,0.00
2013-3-20,78,67,57,63,59,55,95,77,55,30.28,30.14,14,4,14,0.00
2013-3-21,80,70,62,68,62,59,91,77,57,30.18,29.90,14,3,15,0.00
2013-3-22,90,78,68,71,65,62,87,67,48,29.91,29.82,15,4,15,0.01
2013-3-23,86,73,68,69,66,62,90,78,64,30.02,29.90,14,2,15,0.01
2013-3-24,87,72,67,70,66,64,92,83,49,30.02,29.90,8,1,8,0.00
2013-3-25,82,72,63,70,64,51,94,75,58,30.08,29.96,15,3,15,0.00
2013-3-26,83,74,66,72,69,65,97,87,69,30.09,29.97,14,3,14,0.00
2013-3-27,71,69,67,68,67,65,96,94,93,30.05,30.04,2,0,2,0.00
2013-3-28,90,77,66,71,67,63,97,75,41,30.01,29.84,6,2,17,0.02
2013-3-29,80,67,58,69,57,50,96,72,55,30.08,29.88,45,4,21,0.01
2013-3-30,77,66,55,60,55,51,88,69,44,30.09,29.84,14,2,14,0.01
2013-3-31,73,66,61,61,58,51,91,77,52,29.89,29.79,5,1,14,0.00
2013-4-1,66,65,64,62,62,62,93,92,90,30.00,29.99,4,0,4,0.06
2013-4-2,78,67,58,63,58,53,95,75,52,29.99,29.92,12,3,12,0.18
2013-4-3,73,63,59,62,59,57,96,87,68,30.18,29.95,21,2,24,0.31
2013-4-4,67,62,60,63,60,57,98,93,77,30.41,30.19,7,2,14,1.91
2013-4-5,71,64,60,64,61,59,97,91,75,30.43,30.35,12,2,12,0.05
2013-4-6,72,64,59,64,61,58,98,91,70,30.38,30.24,7,1,7,0.05
2013-4-7,75,64,56,64,60,55,98,88,63,30.25,30.15,9,1,9,0.01
2013-4-8,74,64,55,64,60,54,98,87,69,30.28,30.19,9,2,9,0.01
2013-4-9,74,65,59,66,60,58,96,87,66,30.31,30.22,13,3,13,0.08
2013-4-10,78,66,56,63,60,56,99,81,51,30.25,30.14,10,2,10,0.00
2013-4-11,81,67,58,62,58,55,97,75,42,30.25,30.14,9,2,9,0.00
2013-4-12,77,68,60,64,61,58,96,79,56,30.29,30.17,12,2,12,0.01
2013-4-13,80,69,60,63,60,54,93,76,44,30.18,29.97,15,4,15,0.00
2013-4-14,84,70,59,64,60,54,97,75,40,29.97,29.82,9,2,9,0.00
2013-4-15,82,68,59,67,61,56,96,82,46,29.86,29.73,12,2,12,0.07
2013-4-16,68,64,61,63,60,59,97,90,80,29.99,29.85,20,7,20,0.05
2013-4-17,73,64,57,62,59,55,94,83,67,30.02,29.93,10,2,10,0.00
2013-4-18,72,64,58,63,59,57,97,86,66,29.97,29.89,20,2,20,0.00
2013-4-19,66,60,54,58,48,44,88,64,49,29.97,29.88,34,9,35,0.01
2013-4-20,65,59,54,60,56,52,97,90,68,30.02,29.86,25,8,25,1.08
2013-4-21,67,58,51,56,52,48,94,82,65,30.01,29.88,10,2,10,0.01
2013-4-22,73,62,53,57,54,49,97,76,51,29.86,29.73,13,2,13,0.01
2013-4-23,74,62,49,57,52,47,92,71,49,29.99,29.84,20,3,20,0.00
2013-4-24,72,61,53,54,50,44,88,67,40,30.10,29.99,15,3,15,0.00
2013-4-25,70,61,54,53,48,43,88,64,52,30.17,30.08,13,3,13,0.00
2013-4-26,77,64,52,57,52,48,89,67,41,30.20,30.08,15,3,15,0.00
2013-4-27,77,66,56,58,54,50,93,66,42,30.17,30.02,10,2,10,0.00
2013-4-28,80,67,56,57,54,50,92,67,35,30.08,29.98,18,2,18,0.00
2013-4-29,76,64,56,66,58,47,91,78,60,30.23,30.06,10,2,10,0.00
2013-4-30,68,66,62,64,63,60,95,90,83,30.28,30.17,12,3,12,0.01
2013-5-1,76,66,60,66,62,59,98,88,65,30.15,29.94,12,3,12,0.00
2013-5-2,64,59,56,55,50,42,88,71,54,30.34,30.09,26,6,26,0.00
2013-5-3,70,60,49,56,51,47,95,75,52,30.33,30.10,12,2,12,0.00
2013-5-4,75,62,54,59,51,47,93,71,42,30.20,29.96,7,3,21,0.00
2013-5-5,64,59,52,49,46,44,76,63,52,30.26,30.18,7,3,19,0.00
2013-5-6,65,57,52,55,50,45,91,77,68,30.32,30.24,8,3,19,0.00
2013-5-7,69,60,55,58,55,52,93,83,66,30.39,30.30,10,3,10,0.00
2013-5-8,71,62,55,60,57,53,97,84,63,30.44,30.34,8,1,8,0.00
2013-5-9,72,61,53,59,55,52,97,82,53,30.43,30.32,12,2,12,0.01
2013-5-10,72,60,52,60,56,50,96,85,60,30.43,30.36,8,2,8,0.01
2013-5-11,72,63,55,64,59,54,99,89,72,30.42,30.33,10,2,10,0.01
2013-5-12,71,62,54,61,58,53,98,86,67,30.34,30.18,10,1,10,0.01
2013-5-13,69,61,55,60,57,54,98,87,69,30.15,29.91,9,2,9,0.01
2013-5-14,65,59,51,58,48,41,93,67,45,29.93,29.85,15,3,15,0.02
2013-5-15,66,56,45,47,43,40,84,64,44,29.92,29.80,23,4,23,0.00
2013-5-16,67,59,49,51,46,42,87,64,47,29.83,29.73,25,5,25,0.00
2013-5-17,64,58,53,44,43,41,68,57,45,29.92,29.79,28,8,28,0.00
2013-5-18,65,57,52,46,42,40,73,58,42,29.97,29.87,21,5,21,0.00
2013-5-19,64,57,50,44,41,38,66,55,42,30.02,29.94,14,5,18,0.00
2013-5-20,66,57,50,47,43,40,70,61,49,30.07,29.96,18,6,18,0.00
2013-5-21,68,59,46,53,48,42,88,68,49,30.00,29.90,20,5,20,0.00
2013-5-22,62,56,52,56,51,46,97,84,75,29.98,29.83,12,3,12,0.45
2013-5-23,63,56,51,58,54,50,98,93,75,30.05,29.85,9,2,18,0.85
2013-5-24,61,57,54,58,55,52,96,92,84,30.15,30.03,12,6,21,0.47
2013-5-25,66,57,50,55,52,48,97,83,64,30.24,30.14,5,1,10,0.00
2013-5-26,67,56,48,56,49,42,95,78,62,30.28,30.20,6,2,12,0.00
2013-5-27,65,59,50,57,53,47,96,80,70,30.43,30.26,12,4,20,0.15
2013-5-28,66,59,53,60,56,52,99,92,70,30.50,30.41,3,0,8,0.03
2013-5-29,67,58,53,59,56,52,98,91,73,30.45,30.33,3,1,9,0.01
2013-5-30,70,60,51,61,56,50,98,88,66,30.38,30.27,3,1,9,0.01
2013-5-31,73,61,51,58,55,51,98,83,52,30.35,30.21,3,1,9,0.00
2013-6-1,70,61,56,60,57,54,96,86,64,30.19,29.87,5,2,13,0.08
2013-6-2,60,57,54,59,54,47,98,89,67,29.98,29.67,22,7,41,1.33
2013-6-3,63,54,48,49,45,41,85,71,56,30.18,30.02,10,3,25,0.00
2013-6-4,65,57,50,55,49,42,93,75,66,30.30,30.21,13,2,13,0.00
2013-6-5,65,56,48,57,53,48,98,88,73,30.30,30.15,12,2,12,0.01
2013-6-6,67,60,55,58,53,48,93,79,66,30.20,30.10,9,2,9,0.00
2013-6-7,70,63,58,61,56,50,91,79,58,30.25,30.05,12,3,12,0.00
2013-6-8,63,58,54,55,53,50,92,81,69,30.44,30.31,14,3,14,0.02
2013-6-9,66,57,49,56,52,47,97,85,67,30.37,30.21,8,1,8,0.00
2013-6-10,66,56,48,58,53,48,98,92,72,30.19,30.05,13,2,13,0.09
2013-6-11,65,55,45,56,51,45,99,88,65,30.14,30.04,12,1,12,0.01
2013-6-12,58,53,48,57,52,47,98,97,95,30.03,29.76,12,2,12,0.17
2013-6-13,65,57,50,55,51,49,99,84,58,29.77,29.64,14,4,14,0.00
2013-6-14,64,55,46,51,48,44,96,79,58,29.68,29.60,20,3,20,0.01
2013-6-15,63,58,54,50,47,44,84,66,56,29.92,29.70,25,6,25,0.00
2013-6-16,61,54,46,48,44,41,83,71,59,29.96,29.84,15,4,15,0.00
2013-6-17,61,54,49,50,46,41,86,73,62,29.85,29.76,22,5,22,0.00
2013-6-18,62,53,48,51,46,43,96,78,56,30.01,29.85,14,4,15,0.13
2013-6-19,58,53,49,50,48,45,96,82,66,30.24,30.02,25,7,25,0.10
2013-6-20,58,53,48,49,46,44,88,79,68,30.24,30.14,20,5,20,0.00
2013-6-21,59,52,47,51,47,44,92,83,69,30.17,30.09,12,2,12,0.00
2013-6-22,54,50,45,53,48,43,96,92,89,30.31,30.18,13,3,13,0.21
2013-6-23,54,52,51,54,51,50,97,96,94,30.39,30.30,15,4,15,0.45
2013-6-24,58,52,49,54,51,48,97,95,85,30.29,29.96,18,3,18,0.94
2013-6-25,59,54,49,58,53,49,99,98,95,30.01,29.94,21,2,21,0.41
2013-6-26,65,60,58,60,57,56,98,90,76,30.17,30.02,20,5,20,0.45
2013-6-27,62,58,54,59,56,53,98,95,88,30.21,30.14,10,1,12,0.10
2013-6-28,59,56,53,58,56,52,99,98,96,30.24,30.17,10,2,10,0.96
2013-6-29,58,55,54,57,54,53,99,97,93,30.26,30.20,13,2,13,0.38
2013-6-30,60,55,52,58,54,52,99,95,86,30.30,30.22,14,4,14,0.46
2013-7-1,64,55,50,55,50,48,96,86,59,30.24,30.16,7,2,7,0.00
2013-7-2,64,55,48,51,48,45,90,78,59,30.25,30.14,10,2,10,0.00
2013-7-3,63,55,48,51,47,43,95,76,57,30.23,30.13,10,2,10,0.00
2013-7-4,70,56,46,52,47,43,97,73,43,30.09,29.86,15,4,15,0.01
2013-7-5,64,56,48,48,43,30,91,64,32,30.01,29.77,28,4,29,0.00
2013-7-6,60,51,42,40,37,34,80,61,39,30.17,30.05,16,4,16,0.00
2013-7-7,62,52,43,45,41,36,84,66,49,30.37,30.19,15,4,15,0.00
2013-7-8,63,53,44,47,43,40,87,72,46,30.46,30.37,14,3,14,0.00
2013-7-9,56,52,48,50,48,45,95,87,74,30.57,30.47,16,3,16,0.17
2013-7-10,60,53,49,55,51,47,96,91,81,30.53,30.45,9,2,9,0.07
2013-7-11,63,54,46,56,51,45,98,90,68,30.56,30.47,6,1,6,0.01
2013-7-12,64,54,45,54,50,44,98,86,65,30.48,30.31,8,2,8,0.01
2013-7-13,63,54,46,54,50,44,96,85,66,30.39,30.32,5,1,5,0.00
2013-7-14,65,56,48,55,51,46,97,85,63,30.36,30.26,7,1,7,0.01
2013-7-15,65,59,54,59,56,53,96,90,77,30.25,30.16,6,0,6,0.01
2013-7-16,68,61,56,60,57,55,96,88,68,30.25,30.17,9,2,9,0.06
2013-7-17,69,61,55,61,57,54,98,89,71,30.22,30.13,14,2,14,0.00
2013-7-18,69,61,53,62,57,52,97,87,70,30.19,30.07,8,2,8,0.01
2013-7-19,67,60,54,59,56,52,98,87,70,30.03,29.84,14,3,14,0.06
2013-7-20,67,59,51,56,48,38,98,71,40,29.84,29.66,20,4,20,0.01
2013-7-21,59,51,39,39,35,31,90,58,36,30.02,29.87,22,5,22,0.00
2013-7-22,60,48,36,42,36,33,94,67,36,30.10,30.00,22,3,22,0.00
2013-7-23,61,52,42,43,40,36,81,65,50,30.17,30.06,21,5,21,0.00
2013-7-24,60,56,51,46,44,42,74,64,55,30.36,30.19,28,9,28,0.00
2013-7-25,64,54,46,47,44,41,86,70,46,30.40,30.30,13,3,13,0.00
2013-7-26,65,52,42,48,44,39,92,73,48,30.31,30.20,14,2,14,0.00
2013-7-27,64,54,43,53,48,41,94,80,59,30.44,30.33,10,2,10,0.00
2013-7-28,66,56,47,55,50,46,97,82,62,30.40,30.26,8,2,8,0.01
2013-7-29,71,60,50,55,50,47,92,74,48,30.27,30.12,7,2,7,0.00
2013-7-30,68,59,51,56,52,47,94,79,57,30.15,30.03,20,3,20,0.46
2013-7-31,61,57,53,54,53,49,97,87,75,30.23,30.15,21,6,21,0.33
2013-8-1,62,53,50,50,46,43,85,78,66,30.21,30.17,6,2,6,0.00
2013-8-2,65,54,46,52,46,42,97,78,47,30.15,29.89,10,2,12,0.00
2013-8-3,63,55,47,44,41,38,82,60,41,30.00,29.87,21,4,21,0.00
2013-8-4,63,55,46,47,40,38,81,59,40,29.99,29.86,24,5,24,0.00
2013-8-5,66,56,46,45,42,40,80,60,43,30.04,29.92,25,5,25,0.00
2013-8-6,72,59,46,48,45,42,84,60,37,29.96,29.75,22,4,22,0.00
2013-8-7,63,55,48,51,46,37,93,71,41,29.92,29.79,13,3,17,0.09
2013-8-8,56,52,48,50,48,44,97,87,72,29.99,29.69,30,7,30,0.15
2013-8-9,65,55,45,49,42,32,81,63,39,30.08,29.92,17,4,17,0.00
2013-8-10,71,58,46,52,42,33,82,56,40,30.00,29.91,5,2,15,0.00
2013-8-11,69,58,45,51,44,38,86,64,33,30.06,29.89,5,2,13,0.00
2013-8-12,76,60,54,51,47,30,82,64,32,29.90,29.58,41,6,42,0.00
2013-8-13,69,56,40,46,38,31,81,53,34,29.96,29.84,24,4,24,0.00
2013-8-14,73,60,46,43,40,35,82,50,29,29.95,29.72,20,4,20,0.00
2013-8-15,62,56,47,44,38,30,80,54,33,30.17,29.81,24,7,24,0.00
2013-8-16,69,55,41,54,43,36,91,67,32,30.22,29.97,14,4,14,0.00
2013-8-17,75,62,50,52,46,33,85,59,31,29.90,29.70,26,5,26,0.00
2013-8-18,71,59,43,43,39,35,84,51,30,30.02,29.84,17,4,17,0.00
2013-8-19,68,56,44,48,39,36,78,56,34,29.88,29.72,25,5,25,0.00
2013-8-20,59,51,44,36,33,30,72,52,36,29.97,29.84,26,10,26,0.00
2013-8-21,61,53,47,40,37,35,67,56,41,30.00,29.92,21,9,21,0.00
2013-8-22,64,52,41,42,39,36,85,64,41,29.97,29.81,18,4,18,0.00
2013-8-23,63,53,47,46,42,41,82,68,51,29.84,29.79,24,4,24,0.00
2013-8-24,62,62,62,44,44,44,52,52,52,29.80,29.80,7,7,7,0.00
2013-8-25,73,60,48,53,48,41,94,70,35,30.23,29.80,29,3,10,0.00
2013-8-26,70,59,52,55,48,43,85,68,44,30.25,30.11,10,3,12,0.00
2013-8-27,70,61,53,59,51,45,77,70,63,30.18,30.06,9,3,9,0.00
2013-8-28,66,66,66,59,59,59,77,77,77,30.07,30.07,2,2,2,0.00
2013-8-29,73,61,49,61,55,48,97,83,56,30.24,30.06,17,3,17,0.01
2013-8-30,82,69,57,62,54,46,92,64,30,30.03,29.84,13,3,13,0.00
2013-8-31,74,64,55,55,50,46,87,63,39,30.25,30.03,13,3,13,0.00
2013-9-1,74,62,49,58,54,47,95,77,49,30.38,30.26,13,3,13,0.00
2013-9-2,75,62,52,58,54,50,95,76,46,30.46,30.36,10,2,10,0.01
2013-9-3,74,61,50,59,54,49,97,80,54,30.53,30.44,13,2,13,0.00
2013-9-4,72,61,50,59,54,49,98,78,48,30.51,30.34,17,4,17,0.01
2013-9-5,83,65,52,60,55,50,97,73,35,30.37,30.18,12,2,12,0.00
2013-9-6,74,67,62,64,59,51,94,77,61,30.31,30.19,12,4,12,0.00
2013-9-7,87,68,59,65,59,47,97,78,25,30.21,30.06,16,4,16,0.00
2013-9-8,68,63,60,61,59,56,92,85,75,30.29,30.18,21,4,21,0.00
2013-9-9,78,66,56,64,60,55,98,82,49,30.22,29.85,10,2,10,0.01
2013-9-10,88,77,65,57,47,39,75,38,19,29.77,29.52,35,10,35,0.00
2013-9-11,76,64,56,47,41,32,60,45,21,29.96,29.76,30,10,30,0.00
2013-9-12,73,61,51,50,43,38,80,54,30,30.04,29.82,35,8,35,0.00
2013-9-13,65,57,47,51,47,42,85,70,57,30.17,30.03,18,5,18,0.00
2013-9-14,69,62,57,60,56,51,97,84,68,30.00,29.79,24,7,24,0.28
2013-9-15,67,60,54,58,55,52,95,83,63,30.08,29.97,12,3,12,0.00
2013-9-16,62,59,54,60,57,52,98,93,84,30.04,29.69,16,4,16,1.87
2013-9-17,74,65,58,62,56,51,98,75,49,29.56,29.43,18,4,18,0.09
2013-9-18,77,66,55,54,50,42,88,58,31,29.58,29.51,22,4,22,0.00
2013-9-19,75,65,53,48,40,30,77,42,23,29.76,29.57,24,6,24,0.00
2013-9-20,68,59,47,45,42,36,85,55,32,29.86,29.69,35,7,35,0.00
2013-9-21,70,61,54,50,47,44,78,60,44,29.96,29.87,17,5,17,0.00
2013-9-22,77,62,48,55,49,41,93,67,29,29.96,29.85,12,3,12,0.00
2013-9-23,78,65,52,59,54,49,93,71,40,29.94,29.73,9,2,9,0.00
2013-9-24,90,71,58,57,49,34,83,52,18,29.75,29.52,18,4,18,0.00
2013-9-25,87,71,55,59,53,48,78,55,26,29.81,29.68,14,4,14,0.00
2013-9-26,88,70,56,58,47,33,92,51,22,29.95,29.56,39,10,39,0.00
2013-9-27,73,61,46,47,41,35,72,49,32,30.12,29.98,13,4,13,0.00
2013-9-28,85,66,48,48,40,26,87,48,13,29.95,29.68,28,7,28,0.00
2013-9-29,73,64,56,51,44,38,73,48,33,30.03,29.90,24,6,24,0.00
2013-9-30,88,68,50,59,50,41,91,60,20,30.01,29.80,12,3,12,0.00
2013-10-1,91,73,63,57,48,40,62,43,22,29.91,29.53,35,9,35,0.00
2013-10-2,81,64,47,46,42,38,82,50,25,29.99,29.70,21,4,21,0.00
2013-10-3,66,59,52,51,44,40,75,58,45,30.10,29.68,23,10,23,0.01
2013-10-4,68,57,49,47,43,40,76,61,46,30.19,30.08,15,5,22,0.00
2013-10-5,86,66,49,58,48,41,88,60,23,30.09,29.81,10,4,10,0.00
2013-10-6,94,74,53,49,44,36,75,39,16,29.86,29.60,22,4,22,0.00
2013-10-7,69,64,59,60,53,48,85,69,54,29.93,29.66,24,8,24,0.00
2013-10-8,68,61,54,56,53,50,93,76,58,30.10,29.88,22,3,22,0.00
2013-10-9,88,67,51,58,51,43,93,63,21,30.11,29.87,12,3,12,0.00
2013-10-10,99,80,63,47,40,30,51,28,9,29.88,29.56,23,7,23,0.00
2013-10-11,72,66,60,60,56,53,92,71,52,29.99,29.70,20,5,20,0.01
2013-10-12,81,67,53,65,58,-11,95,76,43,30.00,29.75,13,3,13,0.00
2013-10-13,95,76,59,60,50,29,96,53,11,29.72,29.37,35,9,35,0.00
2013-10-14,67,60,55,54,45,37,89,58,42,30.13,29.66,22,5,22,0.03
2013-10-15,74,60,47,50,43,31,85,56,23,30.19,30.05,15,4,15,0.00
2013-10-16,87,65,49,54,45,36,92,56,18,30.10,29.84,14,5,14,0.00
2013-10-17,92,75,61,55,42,26,68,35,10,29.97,29.59,40,10,40,0.00
2013-10-18,71,63,52,49,40,28,66,45,30,30.34,30.08,23,6,23,0.00
2013-10-19,74,64,53,58,51,47,82,63,40,30.36,30.20,14,5,14,0.00
2013-10-20,83,67,56,64,58,53,94,76,49,30.22,29.95,12,3,12,0.00
2013-10-21,94,74,58,64,59,52,94,63,26,30.00,29.83,12,3,12,0.00
2013-10-22,76,70,66,68,64,59,90,80,66,29.99,29.81,22,6,22,0.02
2013-10-23,92,78,66,66,56,37,95,54,15,29.85,29.58,29,8,29,0.11
2013-10-24,70,63,56,50,44,28,74,52,22,30.14,29.81,27,7,27,0.00
2013-10-25,76,61,46,50,38,28,71,44,18,30.21,30.04,15,5,15,0.00
2013-10-26,73,62,50,52,47,39,84,59,43,30.20,30.08,16,5,16,0.00
2013-10-27,76,63,52,59,54,47,91,74,39,30.21,30.12,14,3,14,0.00
2013-10-28,74,66,59,63,60,57,96,82,65,30.18,29.88,15,3,15,0.02
2013-10-29,76,64,59,63,58,53,97,82,53,30.01,29.68,41,11,41,0.00
2013-10-30,72,63,54,54,51,46,83,65,52,30.12,29.99,21,6,21,0.00
2013-10-31,77,66,57,58,55,52,86,71,46,30.21,30.08,16,4,16,0.00
2013-11-1,75,66,60,60,58,56,90,75,57,30.23,30.09,15,4,15,0.00
2013-11-2,91,72,57,64,59,46,95,68,23,30.12,29.85,13,3,13,0.00
2013-11-3,92,72,61,63,53,22,80,56,8,30.08,29.70,38,8,38,0.00
2013-11-4,66,60,56,48,42,33,66,51,36,30.33,30.07,30,12,30,0.00
2013-11-5,70,62,54,52,48,43,84,62,51,30.36,30.27,16,6,16,0.00
2013-11-6,74,62,48,57,52,46,94,71,45,30.28,30.05,17,4,17,0.00
2013-11-7,88,71,55,63,58,53,95,66,33,30.08,29.83,14,3,14,0.00
2013-11-8,97,76,62,63,59,55,82,58,27,29.88,29.64,25,5,25,0.00
2013-11-9,90,73,62,66,61,55,84,67,36,29.98,29.65,20,6,20,0.01
2013-11-10,64,61,58,60,55,52,95,83,73,30.12,29.95,21,8,21,0.46
2013-11-11,63,60,58,62,59,56,97,94,91,30.10,29.95,22,8,22,0.92
2013-11-12,75,65,61,65,62,60,98,90,67,29.94,29.80,10,3,10,0.13
2013-11-13,87,70,57,62,56,42,96,66,22,29.94,29.82,18,4,18,0.00
2013-11-14,82,69,59,57,49,43,81,51,28,30.00,29.84,15,5,15,0.00
2013-11-15,73,65,58,62,59,54,96,81,63,30.02,29.95,18,5,18,2.42
2013-11-16,71,62,57,62,58,56,97,89,67,30.01,29.95,20,6,20,0.64
2013-11-17,63,60,58,60,57,52,96,90,74,30.00,29.95,21,8,21,0.35
2013-11-18,64,62,60,63,58,52,98,89,72,29.98,29.84,29,12,29,0.88
2013-11-19,78,68,62,64,62,60,97,81,56,29.87,29.79,16,5,16,0.20
2013-11-20,82,70,57,67,62,56,99,79,51,29.89,29.81,14,3,14,0.00
2013-11-21,80,72,64,67,65,62,97,81,62,29.90,29.79,18,5,18,0.02
2013-11-22,77,69,67,67,65,59,97,88,57,29.86,29.70,23,6,23,0.89
2013-11-23,78,70,63,67,64,60,99,83,58,29.71,29.58,12,3,12,0.01
2013-11-24,75,67,60,62,59,54,96,76,55,29.78,29.62,16,5,16,0.00
2013-11-25,67,64,61,57,54,50,83,70,64,29.96,29.76,34,13,34,0.08
2013-11-26,74,64,58,54,52,49,76,64,42,30.06,29.93,18,6,18,0.00
2013-11-27,78,66,54,58,54,50,88,66,38,30.06,29.93,12,3,12,0.00
2013-11-28,87,72,57,66,61,55,95,71,44,29.96,29.55,15,3,15,0.00
2013-11-29,74,66,59,66,60,52,95,83,67,29.94,29.51,25,9,25,0.09
2013-11-30,72,66,60,57,55,54,83,68,54,30.22,30.07,18,6,18,0.06
2013-12-1,76,65,55,60,56,53,92,74,48,30.28,30.19,14,4,14,0.00
2013-12-2,79,69,58,59,57,54,93,68,45,30.24,30.04,15,4,15,0.00
2013-12-3,82,70,58,62,59,55,93,71,44,30.08,29.84,17,4,17,0.00
2013-12-4,87,74,60,68,64,58,95,71,48,29.84,29.40,12,3,12,0.00
2013-12-5,81,67,59,67,52,40,97,63,28,29.63,29.37,40,11,40,0.14
2013-12-6,74,68,57,52,48,40,79,50,38,30.07,29.87,17,6,17,0.00
2013-12-7,82,66,51,55,50,43,91,60,27,30.13,30.04,12,3,12,0.00
2013-12-8,82,70,57,63,58,53,93,69,42,30.13,29.86,18,4,18,0.00
2013-12-9,92,75,62,69,63,58,90,69,44,29.88,29.56,12,3,12,0.00
2013-12-10,91,81,70,66,61,54,86,52,32,29.78,29.52,20,6,20,0.00
2013-12-11,89,73,60,65,58,46,94,63,27,29.80,29.62,17,4,17,0.00
2013-12-12,79,71,62,66,63,59,93,76,61,29.87,29.76,21,6,21,0.05
2013-12-13,85,74,62,69,66,60,97,78,53,29.89,29.78,15,4,15,0.00
2013-12-14,77,70,64,67,64,61,96,81,61,30.06,29.83,22,7,22,0.00
2013-12-15,76,67,63,66,64,61,96,89,71,30.11,30.01,12,3,12,0.03
2013-12-16,78,69,65,69,64,62,98,85,67,30.17,30.06,13,3,13,0.39
2013-12-17,82,73,63,65,63,61,94,73,51,30.16,30.06,18,4,18,0.00
2013-12-18,82,73,62,66,62,55,95,69,47,30.23,30.13,15,4,15,0.00
2013-12-19,82,73,60,66,63,58,95,73,52,30.19,30.01,20,5,20,0.00
2013-12-20,103,82,65,70,65,59,93,62,27,30.02,29.80,12,3,12,0.00
2013-12-21,79,73,70,68,66,64,92,79,65,30.01,29.85,28,11,28,0.00
2013-12-22,92,87,78,75,71,67,75,60,50,29.89,29.69,13,4,13,0.00
2013-12-23,90,77,69,76,70,66,93,79,56,29.90,29.64,27,5,27,0.00
2013-12-24,72,67,63,66,61,58,96,83,63,30.13,29.91,16,5,16,0.02
2013-12-25,69,66,63,67,65,62,98,96,93,30.11,29.91,13,2,13,0.45
2013-12-26,79,70,65,68,65,63,98,86,60,29.91,29.79,23,6,23,0.11
2013-12-27,81,71,61,68,64,60,98,81,61,29.92,29.83,13,3,13,0.01
2013-12-28,72,72,71,67,67,67,87,85,84,29.69,29.67,5,1,5,0.00
2013-12-29,74,70,66,67,60,55,96,72,52,29.99,29.54,38,10,38,0.00
2013-12-30,78,71,63,60,58,55,78,65,51,30.00,29.83,16,5,16,0.00
2013-12-31,83,72,60,66,62,58,92,73,50,30.02,29.84,14,4,14,0.00
2014-1-1,83,73,63,68,64,60,92,76,58,30.03,29.73,17,4,17,0.00
2014-1-2,96,77,71,69,66,57,91,73,30,29.73,29.56,18,4,18,0.01